Latest Coastal Weather Observations for Frankston

IDV60701

Issued at 9:21 am EDT Sunday 11 December 2016 (issued every 10 minutes, with the page automatically refreshed every 10 minutes)

About coastal observations | Map of coastal stations | Coastal observations for VIC | Marine services | Other Formats
Station Details ID: 086371 Name: FRANKSTON AWS Lat: -38.15 Lon: 145.12 Height: 6.0 m
Data from the previous 72 hours. | See also: Recent months at Frankston
Date/Time
EDT
Temp
°C
Wind Pressure Rain since
9am
mm
Weather Cloud Vis
km
Sea
Height
m
Swell
Dir  Spd
kts
Gust
kts
hPa Trend Height
m
Period
s
Dir
11/09:00am 14.7 E 3 5 - - - - - - - - - -
11/08:30am 14.0 ENE 2 4 - - - - - - - - - -
11/08:00am 13.4 E 3 5 - - - - - - - - - -
11/07:30am 13.3 E 4 7 - - - - - - - - - -
11/07:00am 13.6 SSE 1 3 - - - - - - - - - -
11/06:30am 12.9 ESE 1 4 - - - - - - - - - -
11/06:00am 12.1 S 4 7 - - - - - - - - - -
11/05:30am 12.5 S 5 7 - - - - - - - - - -
11/05:00am 13.1 S 3 5 - - - - - - - - - -
11/04:30am 13.2 S 2 4 - - - - - - - - - -
11/04:00am 13.0 SSW 6 8 - - - - - - - - - -
11/03:30am 13.1 SW 7 10 - - - - - - - - - -
11/03:00am 13.8 S 4 6 - - - - - - - - - -
11/02:30am 13.9 S 3 6 - - - - - - - - - -
11/02:00am 14.1 S 2 3 - - - - - - - - - -
11/01:30am 14.1 SSW 2 4 - - - - - - - - - -
11/01:00am 14.1 S 2 3 - - - - - - - - - -
11/12:30am 14.2 S 2 4 - - - - - - - - - -
11/12:00am 14.2 S 2 3 - - - - - - - - - -
 
Date/Time
EDT
Temp
°C
Wind Pressure Rain since
9am
mm
Weather Cloud Vis
km
Sea
Height
m
Swell
Dir  Spd
kts
Gust
kts
hPa Trend Height
m
Period
s
Dir
10/11:30pm 14.2 SSW 2 4 - - - - - - - - - -
10/11:00pm 14.2 S 3 5 - - - - - - - - - -
10/10:30pm 14.3 SSW 2 3 - - - - - - - - - -
10/10:00pm 14.4 SSE 1 3 - - - - - - - - - -
10/09:30pm 14.4 SSE 1 3 - - - - - - - - - -
10/09:00pm 14.6 S 4 7 - - - - - - - - - -
10/08:30pm 14.8 S 4 7 - - - - - - - - - -
10/08:00pm 15.4 SSE 4 8 - - - - - - - - - -
10/07:30pm 16.5 SSE 4 7 - - - - - - - - - -
10/07:00pm 15.5 WSW 11 13 - - - - - - - - - -
10/06:30pm 15.4 WSW 9 11 - - - - - - - - - -
10/06:00pm 15.5 W 7 9 - - - - - - - - - -
10/05:30pm 15.4 WSW 8 9 - - - - - - - - - -
10/05:00pm 15.1 WSW 10 11 - - - - - - - - - -
10/04:30pm 15.0 WSW 10 11 - - - - - - - - - -
10/04:00pm 14.8 W 7 9 - - - - - - - - - -
10/03:30pm 14.8 W 7 9 - - - - - - - - - -
10/03:00pm 14.5 W 6 8 - - - - - - - - - -
10/02:30pm 14.4 W 6 8 - - - - - - - - - -
10/02:00pm - WSW 7 10 - - - - - - - - - -
10/01:30pm - WSW 10 13 - - - - - - - - - -
10/01:00pm - WSW 6 8 - - - - - - - - - -
10/12:30pm 13.7 W 6 8 - - - - - - - - - -
10/12:00pm 13.1 W 4 5 - - - - - - - - - -
10/11:30am 13.1 WSW 3 5 - - - - - - - - - -
10/11:00am 12.6 WSW 7 10 - - - - - - - - - -
10/10:30am 12.7 WSW 9 11 - - - - - - - - - -
10/10:00am 12.2 NW 5 6 - - - - - - - - - -
10/09:30am 11.8 W 6 8 - - - - - - - - - -
10/09:00am 12.1 WSW 11 13 - - - - - - - - - -
10/08:30am 13.2 SW 6 13 - - - - - - - - - -
10/08:00am 13.0 SSE 2 3 - - - - - - - - - -
10/07:30am 12.6 S 2 3 - - - - - - - - - -
10/07:00am 12.3 CALM 0 2 - - - - - - - - - -
10/06:30am 12.3 SE 2 3 - - - - - - - - - -
10/06:00am 12.3 S 2 3 - - - - - - - - - -
10/05:30am 12.3 SSW 2 4 - - - - - - - - - -
10/05:00am 12.5 S 1 3 - - - - - - - - - -
10/04:30am 12.5 SSW 3 5 - - - - - - - - - -
10/04:00am 12.5 CALM 0 0 - - - - - - - - - -
10/03:30am 12.6 CALM 0 2 - - - - - - - - - -
10/03:00am 12.7 SSW 4 5 - - - - - - - - - -
10/02:30am 12.7 SSW 3 8 - - - - - - - - - -
10/02:00am 12.7 S 4 7 - - - - - - - - - -
10/01:30am 12.7 SSW 3 5 - - - - - - - - - -
10/01:00am 12.8 S 2 4 - - - - - - - - - -
10/12:30am 12.9 SW 5 9 - - - - - - - - - -
10/12:00am 13.0 SW 5 8 - - - - - - - - - -
 
Date/Time
EDT
Temp
°C
Wind Pressure Rain since
9am
mm
Weather Cloud Vis
km
Sea
Height
m
Swell
Dir  Spd
kts
Gust
kts
hPa Trend Height
m
Period
s
Dir
09/11:30pm 12.9 SSW 5 11 - - - - - - - - - -
09/11:00pm 12.9 S 3 7 - - - - - - - - - -
09/10:30pm 12.8 S 3 6 - - - - - - - - - -
09/10:00pm 12.9 SSW 7 12 - - - - - - - - - -
09/09:30pm 13.2 SW 5 8 - - - - - - - - - -
09/09:00pm 12.9 SW 5 8 - - - - - - - - - -
09/08:30pm 13.5 SW 9 17 - - - - - - - - - -
09/08:00pm - SW 11 16 - - - - - - - - - -
09/07:30pm - SW 13 21 - - - - - - - - - -
09/07:00pm - SW 15 21 - - - - - - - - - -
09/06:30pm - WSW 16 21 - - - - - - - - - -
09/06:00pm - WSW 18 21 - - - - - - - - - -
09/05:30pm 14.3 WSW 16 22 - - - - - - - - - -
09/05:00pm 13.9 WSW 19 25 - - - - - - - - - -
09/04:30pm 14.3 WSW 16 21 - - - - - - - - - -
09/04:00pm 14.1 WSW 18 23 - - - - - - - - - -
09/03:30pm 14.2 WSW 18 24 - - - - - - - - - -
09/03:00pm 13.9 WSW 17 21 - - - - - - - - - -
09/02:30pm 13.5 SW 15 19 - - - - - - - - - -
09/02:00pm 12.6 SW 17 23 - - - - - - - - - -
09/01:30pm 13.3 WSW 17 21 - - - - - - - - - -
09/01:00pm 14.0 WSW 16 20 - - - - - - - - - -
09/12:30pm 13.4 WSW 18 23 - - - - - - - - - -
09/12:00pm 13.7 WSW 18 23 - - - - - - - - - -
09/11:30am 13.2 WSW 18 26 - - - - - - - - - -
09/11:00am 13.5 WSW 18 24 - - - - - - - - - -
09/10:30am 12.7 SW 17 27 - - - - - - - - - -
09/10:25am 12.8 SW 15 27 - - - - - - - - - -
09/10:00am 11.9 SW 13 21 - - - - - - - - - -
09/09:30am 11.6 SW 12 19 - - - - - - - - - -
09/09:00am 12.3 SSW 6 9 - - - - - - - - - -
09/08:30am 12.3 SW 16 24 - - - - - - - - - -
09/08:25am 12.9 SW 13 24 - - - - - - - - - -
09/08:00am 11.5 SSW 6 10 - - - - - - - - - -
09/07:38am 12.4 SW 15 27 - - - - - - - - - -
09/07:30am 12.8 SW 12 18 - - - - - - - - - -
09/07:00am 11.5 SW 9 15 - - - - - - - - - -
09/06:30am 11.8 SW 10 17 - - - - - - - - - -
09/06:00am 10.8 SW 14 23 - - - - - - - - - -
09/05:34am 10.9 SW 23 37 - - - - - - - - - -
09/05:32am 11.6 WSW 23 37 - - - - - - - - - -
09/05:30am 12.8 WSW 20 33 - - - - - - - - - -
09/05:10am 12.8 SW 15 25 - - - - - - - - - -
09/05:00am 12.2 SW 12 20 - - - - - - - - - -
09/04:30am 12.8 SW 21 33 - - - - - - - - - -
09/04:26am 12.8 SW 18 30 - - - - - - - - - -
09/04:19am 12.5 SW 17 23 - - - - - - - - - -
09/04:00am 13.5 WSW 20 28 - - - - - - - - - -
09/03:30am 12.3 SW 18 23 - - - - - - - - - -
09/03:01am 13.1 WSW 21 34 - - - - - - - - - -
09/03:00am 13.7 WSW 20 28 - - - - - - - - - -
09/02:30am 13.4 SW 19 26 - - - - - - - - - -
09/02:00am 13.7 WSW 23 31 - - - - - - - - - -
09/01:30am 14.0 W 23 29 - - - - - - - - - -
09/01:02am 13.9 W 20 33 - - - - - - - - - -
09/01:00am 13.9 W 20 25 - - - - - - - - - -
09/12:59am 13.8 WSW 20 25 - - - - - - - - - -
09/12:30am 13.9 SW 17 24 - - - - - - - - - -
09/12:20am 12.5 WSW 24 33 - - - - - - - - - -
09/12:02am 14.1 W 22 33 - - - - - - - - - -
09/12:00am 14.3 W 21 28 - - - - - - - - - -
 
Date/Time
EDT
Temp
°C
Wind Pressure Rain since
9am
mm
Weather Cloud Vis
km
Sea
Height
m
Swell
Dir  Spd
kts
Gust
kts
hPa Trend Height
m
Period
s
Dir
08/11:30pm 13.2 WSW 27 38 - - - - - - - - - -
08/11:24pm 13.8 WSW 26 38 - - - - - - - - - -
08/11:00pm 14.4 WSW 29 36 - - - - - - - - - -
08/10:53pm 14.7 WSW 25 35 - - - - - - - - - -
08/10:30pm 15.0 WSW 25 30 - - - - - - - - - -
08/10:00pm 14.7 SW 23 31 - - - - - - - - - -
08/09:31pm 14.9 SW 22 34 - - - - - - - - - -
08/09:30pm 14.8 WSW 22 31 - - - - - - - - - -
08/09:04pm 15.0 WSW 25 38 - - - - - - - - - -
08/09:00pm 15.2 WSW 24 30 - - - - - - - - - -
08/08:30pm 14.7 WSW 24 32 - - - - - - - - - -
08/08:00pm 15.2 WSW 20 25 - - - - - - - - - -
08/07:42pm 14.3 WSW 25 39 - - - - - - - - - -
08/07:36pm 16.7 W 23 34 - - - - - - - - - -
08/07:30pm 16.9 W 21 26 - - - - - - - - - -
08/07:00pm 17.4 W 21 26 - - - - - - - - - -
08/06:30pm 17.2 WNW 21 25 - - - - - - - - - -
08/06:00pm 17.6 W 22 26 - - - - - - - - - -
08/05:30pm 18.0 W 22 32 - - - - - - - - - -
08/05:29pm 18.4 W 21 32 - - - - - - - - - -
08/05:00pm 18.9 WNW 20 25 - - - - - - - - - -
08/04:30pm 18.8 W 23 28 - - - - - - - - - -
08/04:00pm 18.8 WNW 23 33 - - - - - - - - - -
08/03:57pm 18.9 WNW 21 33 - - - - - - - - - -
08/03:30pm 19.2 WNW 21 25 - - - - - - - - - -
08/03:00pm 19.2 W 23 31 - - - - - - - - - -
08/02:30pm 19.4 W 23 29 - - - - - - - - - -
08/02:00pm 19.3 WNW 20 26 - - - - - - - - - -
08/01:30pm 18.8 WNW 20 25 - - - - - - - - - -
08/01:00pm 18.2 WNW 21 27 - - - - - - - - - -
08/12:30pm 17.5 WNW 20 25 - - - - - - - - - -
08/12:09pm 17.3 WNW 19 29 - - - - - - - - - -
08/12:00pm 16.9 WNW 20 26 - - - - - - - - - -
08/11:30am 16.6 WNW 20 27 - - - - - - - - - -
08/11:00am 15.1 W 20 24 - - - - - - - - - -
08/10:42am 15.3 WNW 25 32 - - - - - - - - - -
08/10:36am 15.1 NNW 21 32 - - - - - - - - - -
08/10:34am 18.9 N 19 31 - - - - - - - - - -
08/10:30am 18.8 N 19 26 - - - - - - - - - -
08/10:00am 18.8 N 21 28 - - - - - - - - - -
08/09:30am 18.5 NNE 21 29 - - - - - - - - - -

Other Formats:

Comma delimited format used in spreadsheet applications
http://www.bom.gov.au/fwo/IDV60701/IDV60701.94871.axf

JavaScript Object Notation format (JSON) in row-major order
http://www.bom.gov.au/fwo/IDV60701/IDV60701.94871.json